createdAt,value
2023-05-09T00:00:15.059Z,7.4
2023-05-09T00:01:21.993Z,7.3
2023-05-09T00:02:28.931Z,7.3
2023-05-09T00:03:35.825Z,7.3
2023-05-09T00:04:42.768Z,7.3
2023-05-09T00:05:49.785Z,7.2
2023-05-09T00:06:56.655Z,7.2
2023-05-09T00:08:03.543Z,7.2
2023-05-09T00:09:10.453Z,7.3
2023-05-09T00:10:17.424Z,7.3
2023-05-09T00:11:24.355Z,7.3
2023-05-09T00:12:31.225Z,7.3
2023-05-09T00:13:38.093Z,7.2
2023-05-09T00:14:44.921Z,7.2
2023-05-09T00:15:51.834Z,7.3
2023-05-09T00:16:58.753Z,7.3
2023-05-09T00:18:05.601Z,7.3
2023-05-09T00:19:12.460Z,7.3
2023-05-09T00:20:19.332Z,7.2
2023-05-09T00:21:26.191Z,7.2
2023-05-09T00:22:33.119Z,7.2
2023-05-09T00:23:39.986Z,7.2
2023-05-09T00:24:46.824Z,7.3
2023-05-09T00:25:53.846Z,7.2
2023-05-09T00:27:00.699Z,7.2
2023-05-09T00:28:07.586Z,7.1
2023-05-09T00:29:14.425Z,7.2
2023-05-09T00:30:21.268Z,7.2
2023-05-09T00:31:28.222Z,7.2
2023-05-09T00:32:35.172Z,7.2
2023-05-09T00:33:41.997Z,7.2
2023-05-09T00:34:48.816Z,7.1
2023-05-09T00:35:55.709Z,7
2023-05-09T00:37:02.713Z,7.1
2023-05-09T00:38:09.633Z,7.1
2023-05-09T00:39:16.459Z,7.1
2023-05-09T00:40:23.300Z,7.1
2023-05-09T00:41:30.325Z,7.1
2023-05-09T00:42:37.106Z,7.1
2023-05-09T00:43:44.040Z,7
2023-05-09T00:44:50.890Z,7.1
2023-05-09T00:45:57.807Z,7
2023-05-09T00:47:04.654Z,7
2023-05-09T00:48:11.781Z,6.8
2023-05-09T00:49:18.644Z,6.9
2023-05-09T00:50:25.496Z,7
2023-05-09T00:51:32.381Z,6.9
2023-05-09T00:52:39.217Z,6.9
2023-05-09T00:53:46.181Z,6.9
2023-05-09T00:54:53.269Z,6.9
2023-05-09T00:56:00.211Z,7
2023-05-09T00:57:07.308Z,6.9
2023-05-09T00:58:15.001Z,6.8
2023-05-09T00:59:21.950Z,6.8
2023-05-09T01:00:28.952Z,6.6
2023-05-09T01:01:35.847Z,6.7
2023-05-09T01:02:42.706Z,6.8
2023-05-09T01:03:49.647Z,6.8
2023-05-09T01:04:56.573Z,6.7
2023-05-09T01:06:03.567Z,6.8
2023-05-09T01:07:20.793Z,6.8
2023-05-09T01:08:38.064Z,6.8
2023-05-09T01:09:50.119Z,6.8
2023-05-09T01:11:00.115Z,6.7
2023-05-09T01:12:06.969Z,6.7
2023-05-09T01:13:18.024Z,6.8
2023-05-09T01:14:27.647Z,6.7
2023-05-09T01:15:44.914Z,6.7
2023-05-09T01:16:56.991Z,6.8
2023-05-09T01:18:09.054Z,6.7
2023-05-09T01:19:18.955Z,6.7
2023-05-09T01:20:31.288Z,6.6
2023-05-09T01:21:43.346Z,6.6
2023-05-09T01:22:50.275Z,6.7
2023-05-09T01:24:07.495Z,6.7
2023-05-09T01:25:24.933Z,6.7
2023-05-09T01:26:39.598Z,6.7
2023-05-09T01:27:56.894Z,6.7
2023-05-09T01:29:14.266Z,6.7
2023-05-09T01:30:23.782Z,6.6
2023-05-09T01:31:30.625Z,6.6
2023-05-09T01:32:37.692Z,6.6
2023-05-09T01:33:44.612Z,6.7
2023-05-09T01:34:51.476Z,6.7
2023-05-09T01:35:58.342Z,6.6
2023-05-09T01:37:05.210Z,6.6
2023-05-09T01:38:12.156Z,6.6
2023-05-09T01:39:19.088Z,6.6
2023-05-09T01:40:25.959Z,6.7
2023-05-09T01:41:32.798Z,6.8
2023-05-09T01:42:39.732Z,6.7
2023-05-09T01:43:46.613Z,6.7
2023-05-09T01:44:53.678Z,6.7
2023-05-09T01:46:00.375Z,6.7
2023-05-09T01:47:07.229Z,6.6
2023-05-09T01:48:14.081Z,6.6
2023-05-09T01:49:21.094Z,6.5
2023-05-09T01:50:28.008Z,6.5
2023-05-09T01:51:34.863Z,6.6
2023-05-09T01:52:41.711Z,6.6
2023-05-09T01:53:48.583Z,6.6
2023-05-09T01:54:55.699Z,6.6
2023-05-09T01:56:02.603Z,6.7
2023-05-09T01:57:09.580Z,6.7
2023-05-09T01:58:16.414Z,6.5
2023-05-09T01:59:23.312Z,6.5
2023-05-09T02:00:30.300Z,6.6
2023-05-09T02:01:37.007Z,6.6
2023-05-09T02:02:43.936Z,6.5
2023-05-09T02:03:50.751Z,6.5
2023-05-09T02:04:57.584Z,6.3
2023-05-09T02:06:04.496Z,6.4
2023-05-09T02:07:11.419Z,6.4
2023-05-09T02:08:18.237Z,6.4
2023-05-09T02:09:25.043Z,6.5
2023-05-09T02:10:31.962Z,6.5
2023-05-09T02:11:38.991Z,6.6
2023-05-09T02:12:45.897Z,6.5
2023-05-09T02:13:52.736Z,6.4
2023-05-09T02:14:59.643Z,6.4
2023-05-09T02:16:06.920Z,6.4
2023-05-09T02:17:13.701Z,6.5
2023-05-09T02:18:20.534Z,6.5
2023-05-09T02:19:27.370Z,6.4
2023-05-09T02:20:34.313Z,6.4
2023-05-09T02:21:41.314Z,6.4
2023-05-09T02:22:48.183Z,6.5
2023-05-09T02:23:55.189Z,6.5
2023-05-09T02:25:02.110Z,6.5
2023-05-09T02:26:09.279Z,6.5
2023-05-09T02:27:16.233Z,6.5
2023-05-09T02:28:23.081Z,6.4
2023-05-09T02:29:29.925Z,6.4
2023-05-09T02:30:39.800Z,6.4
2023-05-09T02:31:46.928Z,6.4
2023-05-09T02:32:53.821Z,6.4
2023-05-09T02:34:00.869Z,6.4
2023-05-09T02:35:07.772Z,6.4
2023-05-09T02:36:14.657Z,6.5
2023-05-09T02:37:21.542Z,6.4
2023-05-09T02:38:28.438Z,6.5
2023-05-09T02:39:35.758Z,6.5
2023-05-09T02:40:42.661Z,6.4
2023-05-09T02:41:49.587Z,6.3
2023-05-09T02:42:56.475Z,6.2
2023-05-09T02:44:03.383Z,6.3
2023-05-09T02:45:10.272Z,6.3
2023-05-09T02:46:17.777Z,6.3
2023-05-09T02:47:24.708Z,6.2
2023-05-09T02:48:31.438Z,6.3
2023-05-09T02:49:38.353Z,6.4
2023-05-09T02:50:45.300Z,6.3
2023-05-09T02:51:52.168Z,6.3
2023-05-09T02:52:58.999Z,6.3
2023-05-09T02:54:05.875Z,6.3
2023-05-09T02:55:12.907Z,6.3
2023-05-09T02:56:19.616Z,6.2
2023-05-09T02:57:26.558Z,6.2
2023-05-09T02:58:33.425Z,6.2
2023-05-09T02:59:40.285Z,6.2
2023-05-09T03:00:47.170Z,6.2
2023-05-09T03:01:54.220Z,6.3
2023-05-09T03:03:01.239Z,6.3
2023-05-09T03:04:07.856Z,6.3
2023-05-09T03:05:14.862Z,6.3
2023-05-09T03:06:21.659Z,6.2
2023-05-09T03:07:28.516Z,6.2
2023-05-09T03:08:35.352Z,6.1
2023-05-09T03:09:42.265Z,6.1
2023-05-09T03:10:49.180Z,6.2
2023-05-09T03:11:56.201Z,6.2
2023-05-09T03:13:03.115Z,6.1
2023-05-09T03:14:09.997Z,6.1
2023-05-09T03:15:16.923Z,6.1
2023-05-09T03:16:23.954Z,6.2
2023-05-09T03:17:30.750Z,6.2
2023-05-09T03:18:37.747Z,6.2
2023-05-09T03:19:44.520Z,6
2023-05-09T03:20:51.419Z,6
2023-05-09T03:21:58.451Z,6.1
2023-05-09T03:23:05.286Z,5.9
2023-05-09T03:24:12.161Z,6
2023-05-09T03:25:19.029Z,6
2023-05-09T03:26:25.946Z,6
2023-05-09T03:27:32.950Z,6.1
2023-05-09T03:28:39.906Z,6.1
2023-05-09T03:29:46.794Z,6.1
2023-05-09T03:30:53.744Z,6.1
2023-05-09T03:32:01.493Z,6.1
2023-05-09T03:33:08.978Z,6.2
2023-05-09T03:34:16.023Z,6.2
2023-05-09T03:35:22.782Z,6.1
2023-05-09T03:36:29.650Z,6.1
2023-05-09T03:37:36.564Z,6.1
2023-05-09T03:38:43.518Z,6.2
2023-05-09T03:39:50.384Z,6.2
2023-05-09T03:40:57.309Z,6.3
2023-05-09T03:42:04.234Z,6.3
2023-05-09T03:43:11.239Z,6.3
2023-05-09T03:44:18.324Z,6.2
2023-05-09T03:45:25.380Z,6.3
2023-05-09T03:46:32.258Z,6.3
2023-05-09T03:47:39.239Z,6.3
2023-05-09T03:48:46.149Z,6.3
2023-05-09T03:49:53.242Z,6.2
2023-05-09T03:51:00.033Z,6.3
2023-05-09T03:52:06.908Z,6.3
2023-05-09T03:53:13.748Z,6.3
2023-05-09T03:54:20.633Z,6.2
2023-05-09T03:55:28.431Z,6.3
2023-05-09T03:56:35.367Z,6.2
2023-05-09T03:57:42.215Z,6.1
2023-05-09T03:58:49.099Z,6.1
2023-05-09T03:59:55.967Z,6.2
2023-05-09T04:01:02.908Z,6.2
2023-05-09T04:02:09.799Z,6.3
2023-05-09T04:03:16.794Z,6.3
2023-05-09T04:04:23.568Z,6.3
2023-05-09T04:05:30.570Z,6.3
2023-05-09T04:06:37.508Z,6.2
2023-05-09T04:07:44.398Z,6.2
2023-05-09T04:08:51.356Z,6.3
2023-05-09T04:09:58.174Z,6.4
2023-05-09T04:11:05.113Z,6.4
2023-05-09T04:12:12.154Z,6.4
2023-05-09T04:13:19.083Z,6.4
2023-05-09T04:14:25.976Z,6.5
2023-05-09T04:15:32.957Z,6.4
2023-05-09T04:16:40.029Z,6.5
2023-05-09T04:17:46.957Z,6.6
2023-05-09T04:18:53.852Z,6.7
2023-05-09T04:20:00.666Z,6.6
2023-05-09T04:21:07.940Z,6.5
2023-05-09T04:22:14.710Z,6.5
2023-05-09T04:23:21.704Z,6.4
2023-05-09T04:24:28.540Z,6.5
2023-05-09T04:25:35.397Z,6.5
2023-05-09T04:26:42.303Z,6.5
2023-05-09T04:27:49.182Z,6.5
2023-05-09T04:28:56.057Z,6.5
2023-05-09T04:30:02.933Z,6.5
2023-05-09T04:31:10.261Z,6.6
2023-05-09T04:32:16.971Z,6.7
2023-05-09T04:33:23.945Z,6.7
2023-05-09T04:34:30.896Z,6.7
2023-05-09T04:35:37.823Z,6.8
2023-05-09T04:36:44.812Z,6.8
2023-05-09T04:37:51.579Z,6.8
2023-05-09T04:38:58.585Z,6.8
2023-05-09T04:40:05.481Z,6.9
2023-05-09T04:41:12.698Z,6.8
2023-05-09T04:42:19.612Z,6.8
2023-05-09T04:43:30.921Z,6.8
2023-05-09T04:44:37.766Z,6.8
2023-05-09T04:45:44.739Z,6.8
2023-05-09T04:46:51.595Z,6.9
2023-05-09T04:47:58.509Z,6.9
2023-05-09T04:49:05.232Z,6.9
2023-05-09T04:50:12.149Z,6.9
2023-05-09T04:51:19.102Z,6.9
2023-05-09T04:52:26.121Z,6.9
2023-05-09T04:53:32.961Z,6.9
2023-05-09T04:54:39.868Z,7
2023-05-09T04:55:46.774Z,7
2023-05-09T04:56:56.160Z,7
2023-05-09T04:58:00.650Z,7
2023-05-09T04:59:07.527Z,7.1
2023-05-09T05:00:14.427Z,7.2
2023-05-09T05:01:21.521Z,7.2
2023-05-09T05:02:28.588Z,7.1
2023-05-09T05:03:35.441Z,7.1
2023-05-09T05:04:42.324Z,7.2
2023-05-09T05:05:49.256Z,7.2
2023-05-09T05:06:56.072Z,7.3
2023-05-09T05:08:03.393Z,7.1
2023-05-09T05:09:09.998Z,7.2
2023-05-09T05:10:16.942Z,7.2
2023-05-09T05:11:23.792Z,7.2
2023-05-09T05:12:30.701Z,7.2
2023-05-09T05:13:37.533Z,7.3
2023-05-09T05:14:44.454Z,7.3
2023-05-09T05:15:51.333Z,7.3
2023-05-09T05:16:58.202Z,7.4
2023-05-09T05:18:05.098Z,7.5
2023-05-09T05:19:11.895Z,7.6
2023-05-09T05:20:18.738Z,7.6
2023-05-09T05:21:25.549Z,7.4
2023-05-09T05:22:32.875Z,7.3
2023-05-09T05:23:39.752Z,7.4
2023-05-09T05:24:46.393Z,7.6
2023-05-09T05:25:53.238Z,7.6
2023-05-09T05:27:00.165Z,7.6
2023-05-09T05:28:07.317Z,7.7
2023-05-09T05:29:14.222Z,7.7
2023-05-09T05:30:21.226Z,7.7
2023-05-09T05:31:28.083Z,7.7
2023-05-09T05:32:34.970Z,7.8
2023-05-09T05:33:42.022Z,7.9
2023-05-09T05:34:48.853Z,7.9
2023-05-09T05:35:55.726Z,8
2023-05-09T05:37:02.553Z,7.9
2023-05-09T05:38:09.538Z,8
2023-05-09T05:39:16.526Z,8
2023-05-09T05:40:23.372Z,8.1
2023-05-09T05:41:30.278Z,8.2
2023-05-09T05:42:37.139Z,8.3
2023-05-09T05:43:47.700Z,8.3
2023-05-09T05:44:54.775Z,8.2
2023-05-09T05:46:01.697Z,8.3
2023-05-09T05:47:08.631Z,8.3
2023-05-09T05:48:15.517Z,8.3
2023-05-09T05:49:22.543Z,8.3
2023-05-09T05:50:29.563Z,8.4
2023-05-09T05:51:36.469Z,8.5
2023-05-09T05:52:43.361Z,8.4
2023-05-09T05:53:50.250Z,8.4
2023-05-09T05:54:57.139Z,8.5
2023-05-09T05:56:04.038Z,8.6
2023-05-09T05:57:11.066Z,8.7
2023-05-09T05:58:17.892Z,8.7
2023-05-09T05:59:24.795Z,8.8
2023-05-09T06:00:31.759Z,8.8
2023-05-09T06:01:38.759Z,8.9
2023-05-09T06:02:45.769Z,8.8
2023-05-09T06:03:52.465Z,8.8
2023-05-09T06:04:59.326Z,8.9
2023-05-09T06:06:06.242Z,9
2023-05-09T06:07:13.112Z,9
2023-05-09T06:08:19.947Z,9
2023-05-09T06:09:27.058Z,9
2023-05-09T06:10:34.592Z,9
2023-05-09T06:11:41.412Z,9
2023-05-09T06:12:48.763Z,9.1
2023-05-09T06:13:55.604Z,9.3
2023-05-09T06:15:02.499Z,9.6
2023-05-09T06:17:17.013Z,9.9
2023-05-09T06:18:24.210Z,9.9
2023-05-09T06:19:31.123Z,10
2023-05-09T06:20:37.945Z,10
2023-05-09T06:21:44.910Z,9.9
2023-05-09T06:22:51.959Z,10.1
2023-05-09T06:24:08.253Z,10
2023-05-09T06:25:06.948Z,10.2
2023-05-09T06:26:12.777Z,10.2
2023-05-09T06:27:19.754Z,10
2023-05-09T06:28:27.057Z,10.1
2023-05-09T06:29:34.073Z,10.1
2023-05-09T06:30:40.909Z,10.3
2023-05-09T06:31:47.787Z,10.3
2023-05-09T06:32:54.846Z,10.2
2023-05-09T06:34:01.691Z,10.4
2023-05-09T06:35:08.672Z,10.5
2023-05-09T06:36:15.580Z,10.5
2023-05-09T06:37:22.459Z,10.6
2023-05-09T06:38:29.354Z,10.7
2023-05-09T06:39:36.335Z,10.7
2023-05-09T06:40:43.274Z,10.6
2023-05-09T06:41:50.314Z,10.7
2023-05-09T06:42:57.002Z,10.8
2023-05-09T06:44:03.868Z,10.8
2023-05-09T06:45:10.941Z,11
2023-05-09T06:46:17.914Z,11.1
2023-05-09T06:47:24.796Z,11.3
2023-05-09T06:48:31.666Z,11.3
2023-05-09T06:49:38.544Z,11.4
2023-05-09T06:50:45.410Z,11.6
2023-05-09T06:51:52.292Z,11.7
2023-05-09T06:52:59.197Z,11.9
2023-05-09T06:54:06.104Z,11.9
2023-05-09T06:55:13.110Z,12
2023-05-09T06:56:20.239Z,12.1
2023-05-09T06:57:26.990Z,12.1
2023-05-09T06:58:33.718Z,11.8
2023-05-09T06:59:40.574Z,11.6
2023-05-09T07:00:47.532Z,11.8
2023-05-09T07:01:54.450Z,11.9
2023-05-09T07:03:01.302Z,12.1
2023-05-09T07:04:08.189Z,12
2023-05-09T07:05:15.252Z,11.8
2023-05-09T07:06:21.939Z,12
2023-05-09T07:07:28.989Z,12.2
2023-05-09T07:08:35.893Z,12.1
2023-05-09T07:09:42.777Z,12
2023-05-09T07:10:49.684Z,11.9
2023-05-09T07:11:56.749Z,11.9
2023-05-09T07:13:03.859Z,12
2023-05-09T07:14:10.689Z,12.1
2023-05-09T07:15:25.846Z,12.2
2023-05-09T07:16:24.462Z,12.3
2023-05-09T07:17:31.637Z,12.5
2023-05-09T07:18:38.517Z,12.4
2023-05-09T07:19:45.634Z,12.6
2023-05-09T07:20:52.487Z,12.5
2023-05-09T07:21:59.322Z,12.6
2023-05-09T07:23:06.339Z,12.4
2023-05-09T07:24:13.197Z,12.3
2023-05-09T07:25:20.054Z,12.3
2023-05-09T07:26:26.907Z,12.3
2023-05-09T07:27:33.793Z,12.5
2023-05-09T07:28:40.916Z,12.5
2023-05-09T07:29:47.781Z,12.7
2023-05-09T07:30:54.653Z,12.6
2023-05-09T07:32:01.623Z,12.7
2023-05-09T07:33:08.604Z,12.5
2023-05-09T07:34:15.679Z,12.5
2023-05-09T07:35:22.551Z,12.5
2023-05-09T07:36:29.542Z,12.7
2023-05-09T07:37:36.418Z,12.8
2023-05-09T07:38:43.256Z,12.8
2023-05-09T07:39:50.300Z,12.7
2023-05-09T07:40:57.172Z,12.8
2023-05-09T07:42:04.199Z,13
2023-05-09T07:43:11.101Z,12.9
2023-05-09T07:44:18.156Z,13
2023-05-09T07:45:25.062Z,12.9
2023-05-09T07:46:31.997Z,12.8
2023-05-09T07:47:39.068Z,12.6
2023-05-09T07:48:45.904Z,12.8
2023-05-09T07:49:52.767Z,13
2023-05-09T07:50:59.780Z,13.1
2023-05-09T07:52:06.702Z,13.2
2023-05-09T07:53:13.596Z,13
2023-05-09T07:54:20.458Z,12.9
2023-05-09T07:55:27.433Z,13.1
2023-05-09T07:56:34.574Z,13.3
2023-05-09T07:57:41.461Z,13.3
2023-05-09T07:58:48.294Z,13.3
2023-05-09T07:59:55.189Z,13.3
2023-05-09T08:01:02.085Z,13.4
2023-05-09T08:02:08.994Z,13.3
2023-05-09T08:03:16.084Z,13.5
2023-05-09T08:04:22.752Z,13.5
2023-05-09T08:05:29.669Z,13.5
2023-05-09T08:06:36.746Z,13.5
2023-05-09T08:07:43.608Z,13.4
2023-05-09T08:08:50.462Z,13.5
2023-05-09T08:09:57.271Z,13.3
2023-05-09T08:11:04.170Z,13.3
2023-05-09T08:12:11.105Z,13.3
2023-05-09T08:13:18.047Z,13.4
2023-05-09T08:14:24.852Z,13.6
2023-05-09T08:15:31.842Z,13.4
2023-05-09T08:16:38.762Z,13.5
2023-05-09T08:17:45.633Z,13.8
2023-05-09T08:18:52.510Z,13.9
2023-05-09T08:19:59.405Z,13.9
2023-05-09T08:21:06.349Z,13.8
2023-05-09T08:22:13.195Z,13.8
2023-05-09T08:23:20.088Z,13.8
2023-05-09T08:24:27.161Z,13.9
2023-05-09T08:25:34.083Z,14
2023-05-09T08:26:40.940Z,14.2
2023-05-09T08:27:47.816Z,14.4
2023-05-09T08:28:54.747Z,14.3
2023-05-09T08:30:01.754Z,14.1
2023-05-09T08:31:09.079Z,14
2023-05-09T08:32:15.760Z,14.2
2023-05-09T08:33:22.666Z,14
2023-05-09T08:34:29.687Z,14.2
2023-05-09T08:35:39.253Z,14.4
2023-05-09T08:36:46.115Z,14.3
2023-05-09T08:37:53.054Z,14.2
2023-05-09T08:38:59.909Z,14
2023-05-09T08:40:06.778Z,14.1
2023-05-09T08:41:13.853Z,14.1
2023-05-09T08:42:20.678Z,14.1
2023-05-09T08:43:27.637Z,14.1
2023-05-09T08:44:34.524Z,14.1
2023-05-09T08:45:41.504Z,14.2
2023-05-09T08:46:54.418Z,14.5
2023-05-09T08:48:03.813Z,14.7
2023-05-09T08:49:10.669Z,14.7
2023-05-09T08:50:17.838Z,14.7
2023-05-09T08:51:24.408Z,14.8
2023-05-09T08:52:31.267Z,15
2023-05-09T08:53:38.129Z,14.9
2023-05-09T08:54:45.045Z,14.7
2023-05-09T08:55:51.879Z,14.7
2023-05-09T08:56:58.783Z,14.5
2023-05-09T08:58:05.712Z,14.5
2023-05-09T08:59:12.513Z,14.5
2023-05-09T09:00:20.694Z,14.5
2023-05-09T09:01:26.653Z,14.7
2023-05-09T09:02:33.698Z,14.6
2023-05-09T09:03:40.396Z,14.7
2023-05-09T09:04:47.293Z,14.6
2023-05-09T09:05:54.345Z,14.7
2023-05-09T09:07:01.108Z,14.8
2023-05-09T09:08:07.974Z,15.1
2023-05-09T09:09:14.839Z,15.2
2023-05-09T09:10:21.874Z,15.4
2023-05-09T09:11:30.200Z,15.4
2023-05-09T09:12:38.424Z,15.4
2023-05-09T09:13:45.252Z,15.2
2023-05-09T09:14:52.127Z,15
2023-05-09T09:15:59.020Z,15
2023-05-09T09:17:05.877Z,15.1
2023-05-09T09:18:12.902Z,15.2
2023-05-09T09:19:19.560Z,15.1
2023-05-09T09:20:26.392Z,15.1
2023-05-09T09:21:33.241Z,15.2
2023-05-09T09:22:40.177Z,15.5
2023-05-09T09:23:46.968Z,15.6
2023-05-09T09:24:53.733Z,15.4
2023-05-09T09:26:00.564Z,15.5
2023-05-09T09:27:07.468Z,15.7
2023-05-09T09:28:14.298Z,15.9
2023-05-09T09:29:21.141Z,16
2023-05-09T09:30:28.037Z,16.1
2023-05-09T09:31:34.936Z,16.1
2023-05-09T09:32:42.053Z,15.8
2023-05-09T09:33:49.003Z,15.8
2023-05-09T09:34:55.733Z,15.6
2023-05-09T09:36:07.799Z,15.5
2023-05-09T09:37:14.713Z,15.6
2023-05-09T09:38:24.406Z,15.7
2023-05-09T09:39:31.317Z,15.8
2023-05-09T09:40:38.262Z,15.7
2023-05-09T09:41:45.448Z,15.9
2023-05-09T09:42:52.273Z,15.9
2023-05-09T09:43:59.136Z,16
2023-05-09T09:45:13.992Z,16.1
2023-05-09T09:46:20.889Z,16
2023-05-09T09:47:27.737Z,16.1
2023-05-09T09:48:37.594Z,16.4
2023-05-09T09:49:45.951Z,16.5
2023-05-09T09:50:51.495Z,16.3
2023-05-09T09:51:58.560Z,16.3
2023-05-09T09:53:05.378Z,16.4
2023-05-09T09:54:12.290Z,16.7
2023-05-09T09:55:19.190Z,16.7
2023-05-09T09:56:26.141Z,16.6
2023-05-09T09:57:43.375Z,16.5
2023-05-09T09:58:50.225Z,16.6
2023-05-09T09:59:57.110Z,16.2
2023-05-09T10:01:04.115Z,16.1
2023-05-09T10:02:13.770Z,15.9
2023-05-09T10:03:20.672Z,16.2
2023-05-09T10:04:27.466Z,16.3
2023-05-09T10:05:34.442Z,16.2
2023-05-09T10:06:41.178Z,16
2023-05-09T10:07:58.352Z,16.1
2023-05-09T10:09:05.200Z,16.1
2023-05-09T10:10:12.179Z,16.2
2023-05-09T10:11:18.984Z,16.2
2023-05-09T10:12:25.804Z,16.4
2023-05-09T10:13:32.640Z,16.6
2023-05-09T10:14:39.590Z,16.7
2023-05-09T10:15:53.385Z,16.9
2023-05-09T10:16:53.458Z,16.9
2023-05-09T10:18:00.447Z,16.9
2023-05-09T10:19:07.272Z,16.9
2023-05-09T10:20:14.354Z,17
2023-05-09T10:21:21.170Z,17.1
2023-05-09T10:22:28.076Z,17.3
2023-05-09T10:23:34.901Z,17.1
2023-05-09T10:24:41.820Z,16.7
2023-05-09T10:25:51.532Z,16.9
2023-05-09T10:27:03.601Z,17.2
2023-05-09T10:28:10.474Z,16.7
2023-05-09T10:29:20.026Z,17
2023-05-09T10:30:26.978Z,17.1
2023-05-09T10:31:36.581Z,17.3
2023-05-09T10:32:43.456Z,17
2023-05-09T10:34:00.671Z,17
2023-05-09T10:35:07.512Z,16.4
2023-05-09T10:36:14.409Z,16.8
2023-05-09T10:37:21.522Z,16.9
2023-05-09T10:38:28.235Z,16.8
2023-05-09T10:39:35.073Z,16.8
2023-05-09T10:40:41.920Z,17
2023-05-09T10:41:48.755Z,16.9
2023-05-09T10:42:55.674Z,16.7
2023-05-09T10:44:02.501Z,16.6
2023-05-09T10:45:09.324Z,16.7
2023-05-09T10:46:16.225Z,17.2
2023-05-09T10:47:23.130Z,17.3
2023-05-09T10:48:30.047Z,17.4
2023-05-09T10:49:37.439Z,17.2
2023-05-09T10:50:43.856Z,17.1
2023-05-09T10:51:50.678Z,17.3
2023-05-09T10:52:57.817Z,17.4
2023-05-09T10:54:07.251Z,17.4
2023-05-09T10:55:17.109Z,17.3
2023-05-09T10:56:23.776Z,17.2
2023-05-09T10:57:33.234Z,17.2
2023-05-09T10:58:40.094Z,17.1
2023-05-09T10:59:46.996Z,17.1
2023-05-09T11:00:55.150Z,17.3
2023-05-09T11:02:00.848Z,17.3
2023-05-09T11:03:07.646Z,17.3
2023-05-09T11:04:14.547Z,17.4
2023-05-09T11:05:21.268Z,16.8
2023-05-09T11:06:28.140Z,16.7
2023-05-09T11:07:45.406Z,16.7
2023-05-09T11:08:52.336Z,16.5
2023-05-09T11:09:59.103Z,16.4
2023-05-09T11:11:11.196Z,16.4
2023-05-09T11:12:18.013Z,16.6
2023-05-09T11:13:25.255Z,16.5
2023-05-09T11:14:34.998Z,16.3
2023-05-09T11:15:44.600Z,16.2
2023-05-09T11:16:56.677Z,16.2
2023-05-09T11:18:03.632Z,16.3
2023-05-09T11:19:10.560Z,16.4
2023-05-09T11:20:17.382Z,16.4
2023-05-09T11:21:24.322Z,16.2
2023-05-09T11:22:31.326Z,16.3
2023-05-09T11:23:40.956Z,16.4
2023-05-09T11:24:47.950Z,16.6
2023-05-09T11:26:02.939Z,16.7
2023-05-09T11:27:09.902Z,16.7
2023-05-09T11:28:22.100Z,16.8
2023-05-09T11:29:28.952Z,17
2023-05-09T11:30:35.812Z,17
2023-05-09T11:31:42.772Z,17.1
2023-05-09T11:32:54.790Z,17
2023-05-09T11:34:01.682Z,17
2023-05-09T11:35:08.572Z,17
2023-05-09T11:36:18.011Z,17.1
2023-05-09T11:37:27.850Z,17.3
2023-05-09T11:38:34.713Z,17.3
2023-05-09T11:39:44.375Z,17.4
2023-05-09T11:41:01.811Z,17.4
2023-05-09T11:42:08.579Z,17.3
2023-05-09T11:43:15.374Z,17.4
2023-05-09T11:44:22.244Z,17.5
2023-05-09T11:45:29.158Z,17.5
2023-05-09T11:46:35.991Z,17.5
2023-05-09T11:47:42.863Z,17.6
2023-05-09T11:48:49.888Z,17.6
2023-05-09T11:49:56.760Z,17.4
2023-05-09T11:51:03.603Z,17.7
2023-05-09T11:52:10.406Z,17.7
2023-05-09T11:53:17.286Z,17.8
2023-05-09T11:54:24.266Z,17.6
2023-05-09T11:55:31.258Z,17.5
2023-05-09T11:56:38.192Z,17.4
2023-05-09T11:57:44.879Z,17.5
2023-05-09T11:58:51.656Z,17.7
2023-05-09T11:59:58.552Z,17.7
2023-05-09T12:01:05.460Z,17.7
2023-05-09T12:02:12.494Z,17.6
2023-05-09T12:03:19.424Z,17.6
2023-05-09T12:04:26.236Z,17.7
2023-05-09T12:05:36.006Z,17.9
2023-05-09T12:06:44.419Z,17.8
2023-05-09T12:07:49.777Z,17.7
2023-05-09T12:08:56.632Z,17.8
2023-05-09T12:10:03.536Z,17.8
2023-05-09T12:11:10.601Z,17.8
2023-05-09T12:12:17.649Z,17.7
2023-05-09T12:13:24.411Z,17.6
2023-05-09T12:14:31.174Z,17.7
2023-05-09T12:15:38.309Z,17.7
2023-05-09T12:16:44.950Z,17.7
2023-05-09T12:17:52.143Z,17.8
2023-05-09T12:19:06.477Z,17.9
2023-05-09T12:20:13.329Z,18
2023-05-09T12:21:20.249Z,18
2023-05-09T12:22:27.082Z,17.6
2023-05-09T12:23:34.080Z,17.5
2023-05-09T12:24:40.973Z,17.5
2023-05-09T12:25:47.911Z,17.6
2023-05-09T12:26:57.765Z,17.7
2023-05-09T12:28:04.748Z,17.7
2023-05-09T12:29:11.517Z,17.8
2023-05-09T12:30:18.386Z,17.9
2023-05-09T12:31:25.321Z,17.9
2023-05-09T12:32:32.328Z,18
2023-05-09T12:33:39.151Z,18
2023-05-09T12:34:46.035Z,18
2023-05-09T12:35:53.976Z,18
2023-05-09T12:37:07.733Z,18.1
2023-05-09T12:38:20.554Z,18.1
2023-05-09T12:39:27.401Z,18.1
2023-05-09T12:40:34.260Z,18.2
2023-05-09T12:41:50.086Z,18.2
2023-05-09T12:42:53.727Z,18.2
2023-05-09T12:44:00.701Z,18.2
2023-05-09T12:45:07.732Z,18.4
2023-05-09T12:46:14.587Z,18.4
2023-05-09T12:47:21.373Z,18.4
2023-05-09T12:48:31.081Z,18.5
2023-05-09T12:49:37.979Z,18.4
2023-05-09T12:50:44.893Z,18.4
2023-05-09T12:51:51.750Z,18.4
2023-05-09T12:53:03.032Z,18.3
2023-05-09T12:54:05.454Z,18.4
2023-05-09T12:55:12.765Z,18.2
2023-05-09T12:56:19.322Z,18.4
2023-05-09T12:57:31.355Z,18.6
2023-05-09T12:58:36.239Z,18.7
2023-05-09T12:59:43.163Z,18.8
2023-05-09T13:00:49.945Z,18.8
2023-05-09T13:01:56.819Z,18.8
2023-05-09T13:03:03.787Z,18.8
2023-05-09T13:04:11.966Z,18.8
2023-05-09T13:05:17.573Z,19
2023-05-09T13:06:24.212Z,19
2023-05-09T13:07:31.057Z,19
2023-05-09T13:08:43.094Z,18.8
2023-05-09T13:09:49.939Z,18.9
2023-05-09T13:11:04.398Z,18.7
2023-05-09T13:12:04.080Z,18.7
2023-05-09T13:13:10.947Z,18.7
2023-05-09T13:14:20.948Z,18.8
2023-05-09T13:15:27.897Z,18.7
2023-05-09T13:16:34.668Z,18.7
2023-05-09T13:17:41.579Z,18.7
2023-05-09T13:18:48.415Z,18.7
2023-05-09T13:19:55.222Z,18.5
2023-05-09T13:21:02.077Z,18.4
2023-05-09T13:22:10.428Z,18.4
2023-05-09T13:23:15.941Z,18.1
2023-05-09T13:24:22.822Z,18.3
2023-05-09T13:25:29.666Z,18.4
2023-05-09T13:26:36.558Z,18.7
2023-05-09T13:27:43.408Z,18.7
2023-05-09T13:28:50.302Z,18.7
2023-05-09T13:29:57.184Z,18.8
2023-05-09T13:31:04.256Z,18.7
2023-05-09T13:32:10.977Z,18.7
2023-05-09T13:34:24.739Z,18.8
2023-05-09T13:35:31.653Z,18.8
2023-05-09T13:36:38.459Z,18.8
2023-05-09T13:37:45.290Z,18.9
2023-05-09T13:38:52.099Z,18.9
2023-05-09T13:39:58.959Z,18.7
2023-05-09T13:41:05.799Z,18.7
2023-05-09T13:42:12.660Z,18.7
2023-05-09T13:43:19.558Z,18.5
2023-05-09T13:44:26.446Z,18.5
2023-05-09T13:45:33.437Z,18.6
2023-05-09T13:46:40.659Z,18.6
2023-05-09T13:47:47.217Z,18.6
2023-05-09T13:48:54.003Z,18.7
2023-05-09T13:50:01.025Z,18.7
2023-05-09T13:51:08.009Z,18.9
2023-05-09T13:52:14.895Z,19
2023-05-09T13:53:21.683Z,19
2023-05-09T13:54:28.543Z,18.8
2023-05-09T13:55:38.027Z,18.5
2023-05-09T13:56:45.129Z,18.5
2023-05-09T13:57:52.078Z,18.6
2023-05-09T13:58:58.872Z,18.7
2023-05-09T14:00:05.738Z,18.7
2023-05-09T14:01:13.098Z,18.8
2023-05-09T14:02:20.231Z,18.8
2023-05-09T14:03:26.888Z,18.6
2023-05-09T14:04:33.658Z,18.6
2023-05-09T14:05:40.532Z,18.8
2023-05-09T14:06:47.355Z,18.8
2023-05-09T14:07:54.201Z,18.9
2023-05-09T14:09:01.008Z,18.9
2023-05-09T14:10:11.696Z,19
2023-05-09T14:11:14.799Z,18.9
2023-05-09T14:12:21.699Z,18.9
2023-05-09T14:13:28.842Z,18.8
2023-05-09T14:14:35.593Z,18.8
2023-05-09T14:15:42.502Z,18.8
2023-05-09T14:16:49.317Z,18.9
2023-05-09T14:17:56.569Z,18.9
2023-05-09T14:19:03.337Z,19
2023-05-09T14:20:10.207Z,19.1
2023-05-09T14:21:17.000Z,19
2023-05-09T14:22:23.850Z,19
2023-05-09T14:23:30.786Z,19
2023-05-09T14:24:37.605Z,19
2023-05-09T14:25:44.440Z,19
2023-05-09T14:26:51.312Z,18.8
2023-05-09T14:27:58.254Z,18.9
2023-05-09T14:29:05.119Z,18.9
2023-05-09T14:30:11.990Z,18.8
2023-05-09T14:31:18.976Z,18.9
2023-05-09T14:32:25.740Z,18.8
2023-05-09T14:33:32.930Z,18.9
2023-05-09T14:34:39.592Z,18.9
2023-05-09T14:35:46.432Z,19
2023-05-09T14:36:53.289Z,19
2023-05-09T14:38:00.153Z,18.9
2023-05-09T14:39:06.982Z,18.9
2023-05-09T14:40:14.173Z,18.9
2023-05-09T14:41:21.516Z,19
2023-05-09T14:42:27.562Z,19
2023-05-09T14:43:34.394Z,19
2023-05-09T14:44:41.233Z,19
2023-05-09T14:45:48.202Z,18.9
2023-05-09T14:46:55.117Z,19
2023-05-09T14:48:01.991Z,19
2023-05-09T14:49:08.967Z,19
2023-05-09T14:50:16.132Z,19.1
2023-05-09T14:51:22.679Z,19.1
2023-05-09T14:52:29.580Z,19.1
2023-05-09T14:53:36.441Z,18.9
2023-05-09T14:54:43.367Z,18.9
2023-05-09T14:55:50.172Z,18.8
2023-05-09T14:56:57.035Z,18.7
2023-05-09T14:58:03.907Z,18.9
2023-05-09T14:59:10.723Z,18.9
2023-05-09T15:00:21.650Z,18.9
2023-05-09T15:01:24.704Z,18.8
2023-05-09T15:02:31.493Z,18.7
2023-05-09T15:03:38.314Z,18.8
2023-05-09T15:04:45.345Z,18.6
2023-05-09T15:05:52.102Z,18.6
2023-05-09T15:06:59.231Z,18.6
2023-05-09T15:08:05.914Z,18.6
2023-05-09T15:09:12.907Z,18.5
2023-05-09T15:10:19.730Z,18.3
2023-05-09T15:11:28.580Z,18.2
2023-05-09T15:12:33.447Z,18.3
2023-05-09T15:13:40.363Z,18.3
2023-05-09T15:14:47.219Z,18.4
2023-05-09T15:15:54.041Z,18.5
2023-05-09T15:17:00.969Z,18.6